Time;durP1;ratioP1;P1;durP2;ratioP2;P2;SDS_P1;SDS_P2;PMS_P1;PMS_P2;Temp;Humidity;BMP_temperature;BMP_pressure;BME280_temperature;BME280_humidity;BME280_pressure;Samples;Min_cycle;Max_cycle;Signal;HPM_P1;HPM_P2
2023/12/17 00:01:29;;;;;;;11.73;6.37;;;-0.20;99.90;;;;;;5073685;28;20181;-59
2023/12/17 00:03:55;;;;;;;9.57;5.27;;;-0.20;99.90;;;;;;5073792;28;20200;-58
2023/12/17 00:06:20;;;;;;;13.37;6.20;;;-0.20;99.90;;;;;;5073488;28;20252;-59
2023/12/17 00:08:48;;;;;;;28.53;7.17;;;-0.20;99.90;;;;;;5070009;28;20211;-58
2023/12/17 00:11:14;;;;;;;13.27;6.23;;;-0.20;99.90;;;;;;5073519;28;20618;-58
2023/12/17 00:13:39;;;;;;;9.90;5.10;;;-0.10;99.90;;;;;;5073146;28;20466;-58
2023/12/17 00:16:05;;;;;;;11.63;5.40;;;-0.10;99.90;;;;;;5071805;28;20197;-58
2023/12/17 00:18:31;;;;;;;11.13;5.47;;;-0.10;99.90;;;;;;5073457;28;20563;-58
2023/12/17 00:20:57;;;;;;;10.40;5.90;;;-0.10;99.90;;;;;;5070298;28;20217;-57
2023/12/17 00:23:22;;;;;;;10.30;5.77;;;-0.10;99.90;;;;;;5072593;28;20849;-57
2023/12/17 00:25:48;;;;;;;14.27;7.47;;;-0.10;99.90;;;;;;5072440;28;20276;-58
2023/12/17 00:28:13;;;;;;;9.90;5.03;;;-0.20;99.90;;;;;;5072984;28;20814;-60
2023/12/17 00:30:39;;;;;;;16.30;7.57;;;-0.20;99.90;;;;;;5073227;28;20192;-58
2023/12/17 00:33:04;;;;;;;13.50;6.40;;;-0.40;99.90;;;;;;5072847;28;20599;-58
2023/12/17 00:35:30;;;;;;;14.53;6.90;;;-0.40;99.90;;;;;;5073026;28;20192;-58
2023/12/17 00:37:55;;;;;;;19.10;7.27;;;-0.50;99.90;;;;;;5071742;28;20180;-58
2023/12/17 00:40:21;;;;;;;19.93;7.60;;;-0.40;99.90;;;;;;5071642;28;20188;-59
2023/12/17 00:42:47;;;;;;;15.40;6.23;;;-0.40;99.90;;;;;;5072181;28;20259;-58
2023/12/17 00:45:12;;;;;;;16.17;6.60;;;-0.30;99.90;;;;;;5073016;28;20238;-59
2023/12/17 00:47:38;;;;;;;17.50;6.50;;;-0.40;99.90;;;;;;5072884;28;20181;-58
2023/12/17 00:50:04;;;;;;;10.20;5.63;;;-0.40;99.90;;;;;;5072653;28;20919;-58
2023/12/17 00:52:29;;;;;;;11.57;5.43;;;-0.50;99.90;;;;;;5072173;28;20287;-58
2023/12/17 00:54:55;;;;;;;12.57;6.07;;;-0.50;99.90;;;;;;5072538;28;20268;-58
2023/12/17 00:57:21;;;;;;;11.77;6.70;;;-0.50;99.90;;;;;;5072343;28;20822;-58
2023/12/17 00:59:46;;;;;;;12.57;5.40;;;-0.40;99.90;;;;;;5072755;28;20222;-58
2023/12/17 01:02:12;;;;;;;21.07;8.20;;;-0.40;99.90;;;;;;5072378;28;20223;-59
2023/12/17 01:04:38;;;;;;;19.33;7.50;;;-0.40;99.90;;;;;;5072535;28;20221;-58
2023/12/17 01:07:04;;;;;;;15.13;6.20;;;-0.40;99.90;;;;;;5072226;28;20455;-58
2023/12/17 01:09:29;;;;;;;25.50;7.20;;;-0.40;99.90;;;;;;5059236;28;20584;-58
2023/12/17 01:11:57;;;;;;;20.03;8.10;;;-0.40;99.90;;;;;;5071253;28;20220;-58
2023/12/17 01:14:22;;;;;;;22.20;7.70;;;-0.40;99.90;;;;;;5071438;28;20526;-58
2023/12/17 01:16:48;;;;;;;16.33;8.90;;;-0.40;99.90;;;;;;5071945;28;20419;-58
2023/12/17 01:19:13;;;;;;;12.43;6.30;;;-0.40;99.90;;;;;;5072460;28;20181;-58
2023/12/17 01:21:39;;;;;;;10.17;5.00;;;-0.50;99.90;;;;;;5071784;28;20189;-57
2023/12/17 01:24:05;;;;;;;12.73;5.43;;;-0.40;99.90;;;;;;5071039;28;20193;-57
2023/12/17 01:26:30;;;;;;;18.43;6.70;;;-0.40;99.90;;;;;;5071959;28;20185;-57
2023/12/17 01:28:56;;;;;;;10.07;6.53;;;-0.50;99.90;;;;;;5071404;28;20204;-57
2023/12/17 01:31:22;;;;;;;10.13;5.03;;;-0.60;99.90;;;;;;5072009;28;20188;-58
2023/12/17 01:33:47;;;;;;;10.13;5.20;;;-0.70;99.90;;;;;;5071731;28;20227;-58
2023/12/17 01:36:13;;;;;;;15.60;5.70;;;-0.70;99.90;;;;;;5071523;28;20196;-57
2023/12/17 01:38:38;;;;;;;13.30;5.23;;;-0.70;99.90;;;;;;5069360;28;20576;-57
2023/12/17 01:41:04;;;;;;;9.67;4.40;;;-0.70;99.90;;;;;;5071257;28;20673;-58
2023/12/17 01:43:30;;;;;;;10.50;5.23;;;-0.70;99.90;;;;;;5071231;28;20173;-58
2023/12/17 01:45:55;;;;;;;16.63;6.10;;;-0.60;99.90;;;;;;5071876;28;20231;-57
2023/12/17 01:48:22;;;;;;;14.80;5.63;;;-0.60;99.90;;;;;;5071449;28;20188;-57
2023/12/17 01:50:49;;;;;;;9.87;5.30;;;-0.60;99.90;;;;;;5071405;28;20181;-59
2023/12/17 01:53:15;;;;;;;10.87;5.27;;;-0.70;99.90;;;;;;5071053;28;20916;-58
2023/12/17 01:55:42;;;;;;;11.00;5.10;;;-0.70;99.90;;;;;;5071250;28;20457;-58
2023/12/17 01:58:11;;;;;;;9.27;4.37;;;-0.70;99.90;;;;;;5071186;28;20511;-58
2023/12/17 02:00:37;;;;;;;7.43;4.83;;;-0.70;99.90;;;;;;5071048;28;20784;-58
2023/12/17 02:03:04;;;;;;;10.40;3.60;;;-0.70;99.90;;;;;;5071373;28;20466;-58
2023/12/17 02:05:33;;;;;;;13.53;4.83;;;-0.70;99.90;;;;;;5058511;28;20459;-58
2023/12/17 02:07:59;;;;;;;8.40;4.80;;;-0.60;99.90;;;;;;5071791;28;20464;-58
2023/12/17 02:10:25;;;;;;;8.00;4.47;;;-0.70;99.90;;;;;;5071358;28;20490;-58
2023/12/17 02:12:50;;;;;;;9.77;4.80;;;-0.70;99.90;;;;;;5070648;28;20575;-58
2023/12/17 02:15:16;;;;;;;6.43;3.87;;;-0.70;99.90;;;;;;5071603;28;20505;-58
2023/12/17 02:17:42;;;;;;;7.47;3.60;;;-0.70;99.90;;;;;;5071421;28;20802;-57
2023/12/17 02:20:08;;;;;;;11.50;5.30;;;-0.70;99.90;;;;;;5071068;28;20199;-57
2023/12/17 02:22:34;;;;;;;12.40;5.40;;;-0.70;99.90;;;;;;5070617;28;20539;-56
2023/12/17 02:25:00;;;;;;;10.77;4.60;;;-0.70;99.90;;;;;;5071159;28;20451;-56
2023/12/17 02:27:26;;;;;;;12.90;4.67;;;-0.70;99.90;;;;;;5070193;28;20468;-58
2023/12/17 02:29:53;;;;;;;14.00;5.73;;;-0.70;99.90;;;;;;5071557;28;20208;-58
2023/12/17 02:32:21;;;;;;;14.13;4.00;;;-0.80;99.90;;;;;;5071112;28;20226;-58
2023/12/17 02:34:47;;;;;;;8.00;4.73;;;-0.90;99.90;;;;;;5071445;28;20419;-58
2023/12/17 02:37:12;;;;;;;8.27;5.00;;;-1.00;99.90;;;;;;5057455;28;20425;-58
2023/12/17 02:39:38;;;;;;;8.00;4.63;;;-1.00;99.90;;;;;;5070796;28;20422;-58
2023/12/17 02:42:04;;;;;;;7.97;4.37;;;-0.90;99.90;;;;;;5070855;28;20880;-58
2023/12/17 02:44:29;;;;;;;18.03;6.30;;;-0.90;99.90;;;;;;5071210;28;20200;-58
2023/12/17 02:46:55;;;;;;;9.90;4.90;;;-0.90;99.90;;;;;;5070800;28;20274;-58
2023/12/17 02:49:21;;;;;;;15.80;5.13;;;-0.80;99.90;;;;;;5072437;28;20185;-58
2023/12/17 02:51:46;;;;;;;13.60;5.93;;;-0.90;99.90;;;;;;5075163;28;20649;-58
2023/12/17 02:54:12;;;;;;;5.33;3.80;;;-1.00;99.90;;;;;;5074510;28;20197;-58
2023/12/17 02:56:38;;;;;;;9.73;4.63;;;-1.00;99.90;;;;;;5074948;28;20275;-58
2023/12/17 02:59:08;;;;;;;10.50;4.33;;;-1.00;99.90;;;;;;5074240;28;20183;-58
2023/12/17 03:01:34;;;;;;;13.60;4.73;;;-0.90;99.90;;;;;;5074618;28;20431;-58
2023/12/17 03:03:59;;;;;;;17.30;4.70;;;-1.00;99.90;;;;;;5074912;28;20481;-58
2023/12/17 03:06:25;;;;;;;9.07;4.20;;;-1.00;99.90;;;;;;5080607;28;20180;-58
2023/12/17 03:08:50;;;;;;;7.23;4.00;;;-1.00;99.90;;;;;;5069973;28;20181;-58
2023/12/17 03:11:16;;;;;;;7.80;4.80;;;-1.00;99.90;;;;;;5074721;28;20184;-58
2023/12/17 03:13:41;;;;;;;7.53;3.97;;;-0.90;99.90;;;;;;5072430;28;20174;-58
2023/12/17 03:16:08;;;;;;;7.87;4.40;;;-0.90;99.90;;;;;;5074390;28;20228;-58
2023/12/17 03:18:34;;;;;;;10.70;4.43;;;-0.90;99.90;;;;;;5074764;28;20185;-58
2023/12/17 03:21:00;;;;;;;12.90;4.53;;;-0.80;99.90;;;;;;5074459;28;20423;-58
2023/12/17 03:23:25;;;;;;;6.73;3.90;;;-0.80;99.90;;;;;;5074415;28;20189;-58
2023/12/17 03:25:50;;;;;;;11.10;4.20;;;-0.90;99.90;;;;;;5074783;28;20200;-58
2023/12/17 03:28:16;;;;;;;7.40;3.80;;;-1.00;99.90;;;;;;5074660;28;20181;-59
2023/12/17 03:30:41;;;;;;;11.83;3.70;;;-1.00;99.90;;;;;;5074860;28;20640;-57
2023/12/17 03:33:09;;;;;;;6.37;3.53;;;-1.00;99.90;;;;;;5068027;28;20665;-57
2023/12/17 03:35:34;;;;;;;10.63;3.57;;;-0.90;99.90;;;;;;5066839;28;20181;-57
2023/12/17 03:38:00;;;;;;;7.20;3.50;;;-0.90;99.90;;;;;;5061484;28;20430;-59
2023/12/17 03:40:25;;;;;;;11.83;3.63;;;-0.90;99.90;;;;;;5074050;28;20192;-58
2023/12/17 03:42:50;;;;;;;8.23;3.90;;;-1.00;99.90;;;;;;5073535;28;20349;-58
2023/12/17 03:45:16;;;;;;;6.93;3.23;;;-1.00;99.90;;;;;;5073982;28;20219;-58
2023/12/17 03:47:46;;;;;;;8.60;4.10;;;-1.10;99.90;;;;;;5074108;28;20181;-58
2023/12/17 03:50:13;;;;;;;5.00;3.20;;;-1.10;99.90;;;;;;5073725;28;20626;-58
2023/12/17 03:52:39;;;;;;;8.83;3.80;;;-1.00;99.90;;;;;;5073588;28;20897;-58
2023/12/17 03:55:04;;;;;;;7.70;4.10;;;-1.00;99.90;;;;;;5073305;28;20437;-58
2023/12/17 03:57:30;;;;;;;10.47;4.50;;;-1.10;99.90;;;;;;5073465;28;20267;-58
2023/12/17 03:59:56;;;;;;;8.70;4.30;;;-1.10;99.90;;;;;;5073583;28;20547;-58
2023/12/17 04:02:21;;;;;;;9.93;3.90;;;-1.10;99.90;;;;;;5072789;28;20183;-58
2023/12/17 04:04:47;;;;;;;7.23;3.43;;;-1.10;99.90;;;;;;5077137;28;20197;-58
2023/12/17 04:07:12;;;;;;;10.70;4.20;;;-1.20;99.90;;;;;;5073093;28;20667;-58
2023/12/17 04:09:38;;;;;;;10.63;3.70;;;-1.20;99.90;;;;;;5070077;28;20185;-58
2023/12/17 04:12:03;;;;;;;8.60;4.60;;;-1.10;99.90;;;;;;5072972;28;20197;-56
2023/12/17 04:14:29;;;;;;;6.13;3.10;;;-1.10;99.90;;;;;;5055188;28;20284;-56
2023/12/17 04:16:54;;;;;;;8.63;3.67;;;-1.00;99.90;;;;;;5073541;28;20193;-58
2023/12/17 04:19:20;;;;;;;7.77;3.57;;;-1.10;99.90;;;;;;5073271;28;20189;-58
2023/12/17 04:21:45;;;;;;;9.47;3.30;;;-1.10;99.90;;;;;;5073320;28;20203;-58
2023/12/17 04:24:11;;;;;;;13.40;4.50;;;-1.00;99.90;;;;;;5072004;28;20196;-58
2023/12/17 04:26:36;;;;;;;10.30;4.90;;;-1.10;99.90;;;;;;5073272;28;20260;-58
2023/12/17 04:29:02;;;;;;;12.00;4.80;;;-1.00;99.90;;;;;;5072544;28;20207;-58
2023/12/17 04:31:27;;;;;;;8.30;3.93;;;-1.10;99.90;;;;;;5073144;28;20185;-58
2023/12/17 04:33:53;;;;;;;4.87;3.50;;;-1.10;99.90;;;;;;5073128;28;20271;-58
2023/12/17 04:36:18;;;;;;;9.37;4.20;;;-1.00;99.90;;;;;;5074512;28;20545;-56
2023/12/17 04:38:46;;;;;;;11.10;4.77;;;-1.00;99.90;;;;;;5065653;28;20185;-56
2023/12/17 04:41:12;;;;;;;14.33;4.90;;;-1.00;99.90;;;;;;5072721;28;20232;-57
2023/12/17 04:43:38;;;;;;;7.90;4.20;;;-1.00;99.90;;;;;;5072223;28;20460;-56
2023/12/17 04:46:04;;;;;;;13.80;5.17;;;-1.10;99.90;;;;;;5072675;28;20810;-57
2023/12/17 04:48:29;;;;;;;9.03;4.20;;;-1.00;99.90;;;;;;5072399;28;20220;-58
2023/12/17 04:50:55;;;;;;;12.97;4.43;;;-1.00;99.90;;;;;;5072673;28;20185;-57
2023/12/17 04:53:20;;;;;;;6.40;3.63;;;-1.00;99.90;;;;;;5071908;28;20185;-57
2023/12/17 04:55:45;;;;;;;9.83;4.10;;;-1.00;99.90;;;;;;5072507;28;20856;-57
2023/12/17 04:58:11;;;;;;;10.30;4.80;;;-1.00;99.90;;;;;;5071935;28;20192;-57
2023/12/17 05:03:02;;;;;;;7.60;4.37;;;-0.90;99.90;;;;;;5028508;23;20703;-58
2023/12/17 05:05:28;;;;;;;19.13;5.10;;;-0.80;99.90;;;;;;5014465;28;20209;-59
2023/12/17 05:07:53;;;;;;;9.03;4.27;;;-0.80;99.90;;;;;;5010506;28;20969;-59
2023/12/17 05:10:19;;;;;;;9.80;4.83;;;-0.60;99.90;;;;;;5007915;28;20191;-59
2023/12/17 05:12:44;;;;;;;9.43;4.63;;;-0.50;99.90;;;;;;5012193;28;20654;-58
2023/12/17 05:15:10;;;;;;;11.23;6.37;;;-0.40;99.90;;;;;;5012778;28;20194;-59
2023/12/17 05:17:35;;;;;;;9.73;4.97;;;-0.20;99.90;;;;;;5012757;28;20588;-58
2023/12/17 05:20:01;;;;;;;9.40;5.17;;;-0.10;99.90;;;;;;5010985;28;20273;-58
2023/12/17 05:22:26;;;;;;;8.73;5.00;;;0.00;99.90;;;;;;5012359;28;20771;-59
2023/12/17 05:24:52;;;;;;;7.97;4.77;;;0.00;99.90;;;;;;5012923;28;20679;-59
2023/12/17 05:27:17;;;;;;;15.67;5.07;;;0.10;99.90;;;;;;5008168;28;20257;-59
2023/12/17 05:29:43;;;;;;;9.53;5.40;;;0.10;99.90;;;;;;5015475;28;20214;-58
2023/12/17 05:32:08;;;;;;;12.00;5.10;;;0.10;99.90;;;;;;5012485;28;20194;-59
2023/12/17 05:34:34;;;;;;;11.00;4.57;;;0.20;99.90;;;;;;5016027;28;20189;-59
2023/12/17 05:37:00;;;;;;;8.47;5.10;;;0.20;99.90;;;;;;5010417;28;20551;-59
2023/12/17 05:39:25;;;;;;;8.20;4.43;;;0.20;99.90;;;;;;5016964;28;20559;-59
2023/12/17 05:41:51;;;;;;;12.00;4.57;;;0.20;99.90;;;;;;5019903;28;20434;-58
2023/12/17 05:44:16;;;;;;;9.77;4.70;;;0.30;99.90;;;;;;5011882;28;20186;-58
2023/12/17 05:46:42;;;;;;;9.70;4.83;;;0.30;99.90;;;;;;5024873;28;20218;-59
2023/12/17 05:49:07;;;;;;;9.53;4.87;;;0.30;99.90;;;;;;5013054;28;20221;-59
2023/12/17 05:51:32;;;;;;;8.43;4.03;;;0.30;99.90;;;;;;5012426;28;20525;-59
2023/12/17 05:53:58;;;;;;;5.33;3.37;;;0.20;99.90;;;;;;5011684;28;20658;-59
2023/12/17 05:56:23;;;;;;;8.33;4.07;;;0.20;99.90;;;;;;5011945;28;20195;-58
2023/12/17 05:58:49;;;;;;;7.83;4.17;;;0.10;99.90;;;;;;5011538;28;20187;-57
2023/12/17 06:01:14;;;;;;;13.40;5.20;;;0.00;99.90;;;;;;5009431;28;20314;-57
2023/12/17 06:03:40;;;;;;;7.33;4.20;;;0.00;99.90;;;;;;5011791;28;20257;-57
2023/12/17 06:06:06;;;;;;;6.37;3.70;;;0.00;99.90;;;;;;5012097;28;20207;-57
2023/12/17 06:08:32;;;;;;;10.30;5.97;;;0.00;99.90;;;;;;4999839;28;20188;-57
2023/12/17 06:10:57;;;;;;;9.80;5.00;;;0.00;99.90;;;;;;5003871;28;20424;-57
2023/12/17 06:13:23;;;;;;;17.47;7.50;;;-0.10;99.90;;;;;;5010466;28;20179;-57
2023/12/17 06:15:48;;;;;;;9.67;4.77;;;0.00;99.90;;;;;;5008160;28;20202;-58
2023/12/17 06:18:15;;;;;;;11.30;4.60;;;0.00;99.90;;;;;;5011877;28;20274;-59
2023/12/17 06:20:41;;;;;;;9.97;4.77;;;0.00;99.90;;;;;;5011898;28;20182;-58
2023/12/17 06:23:06;;;;;;;14.30;5.50;;;0.00;99.90;;;;;;5011126;28;20420;-57
2023/12/17 06:25:32;;;;;;;11.07;5.50;;;0.10;99.90;;;;;;5014970;28;20229;-57
2023/12/17 06:27:57;;;;;;;9.30;4.20;;;0.00;99.90;;;;;;5015467;28;20187;-59
2023/12/17 06:30:23;;;;;;;14.67;5.10;;;0.00;99.90;;;;;;5015909;28;20187;-59
2023/12/17 06:32:48;;;;;;;7.57;4.10;;;0.10;99.90;;;;;;5015472;28;20202;-57
2023/12/17 06:35:14;;;;;;;6.87;4.40;;;0.10;99.90;;;;;;5019355;28;20179;-57
2023/12/17 06:37:39;;;;;;;10.10;5.13;;;0.10;99.90;;;;;;5016545;28;20194;-57
2023/12/17 06:40:06;;;;;;;8.53;4.10;;;0.20;99.90;;;;;;5015632;28;20198;-57
2023/12/17 06:42:31;;;;;;;8.07;4.17;;;0.20;99.90;;;;;;5015068;28;20190;-57
2023/12/17 06:44:57;;;;;;;10.70;5.20;;;0.10;99.90;;;;;;5015223;28;20469;-57
2023/12/17 06:47:22;;;;;;;11.70;4.73;;;0.10;99.90;;;;;;5012841;28;20310;-59
2023/12/17 06:49:48;;;;;;;6.63;4.00;;;0.00;99.90;;;;;;5014999;28;20191;-59
2023/12/17 06:52:13;;;;;;;9.97;3.80;;;-0.10;99.90;;;;;;5012471;28;20266;-59
2023/12/17 06:54:39;;;;;;;6.73;4.50;;;0.10;99.90;;;;;;5015543;28;20195;-59
2023/12/17 06:57:04;;;;;;;11.17;4.90;;;-0.10;99.90;;;;;;5028617;28;20214;-59
2023/12/17 06:59:30;;;;;;;6.80;4.53;;;-0.10;99.90;;;;;;5015384;28;20187;-59
2023/12/17 07:01:55;;;;;;;8.30;5.10;;;-0.10;99.90;;;;;;5015129;28;20653;-59
2023/12/17 07:04:21;;;;;;;12.20;5.60;;;0.00;99.90;;;;;;5009359;28;20198;-59
2023/12/17 07:06:46;;;;;;;10.73;6.27;;;-0.10;99.90;;;;;;5026012;28;20183;-58
2023/12/17 07:09:12;;;;;;;15.43;6.77;;;-0.10;99.90;;;;;;5006986;28;20563;-58
2023/12/17 07:11:38;;;;;;;8.83;5.17;;;-0.10;99.90;;;;;;5019105;28;20210;-59
2023/12/17 07:14:03;;;;;;;11.60;6.03;;;-0.20;99.90;;;;;;5027091;28;20253;-59
2023/12/17 07:16:29;;;;;;;13.37;7.10;;;-0.20;99.90;;;;;;5017794;28;20199;-59
2023/12/17 07:18:54;;;;;;;14.60;6.50;;;-0.30;99.90;;;;;;5023862;28;20548;-59
2023/12/17 07:21:20;;;;;;;13.00;7.10;;;-0.20;99.90;;;;;;5015143;28;20634;-59
2023/12/17 07:23:46;;;;;;;12.60;5.20;;;-0.20;99.90;;;;;;5014447;28;20193;-59
2023/12/17 07:26:11;;;;;;;10.33;5.40;;;-0.30;99.90;;;;;;5014200;28;20217;-57
2023/12/17 07:28:37;;;;;;;14.93;5.23;;;-0.30;99.90;;;;;;5023174;28;20194;-57
2023/12/17 07:31:03;;;;;;;12.07;6.77;;;-0.30;99.90;;;;;;5014597;28;20262;-59
2023/12/17 07:33:29;;;;;;;13.17;6.33;;;-0.30;99.90;;;;;;5014719;28;20187;-59
2023/12/17 07:35:54;;;;;;;14.63;7.27;;;-0.30;99.90;;;;;;5014477;28;20925;-57
2023/12/17 07:38:20;;;;;;;12.97;6.07;;;-0.30;99.90;;;;;;5010717;28;20731;-57
2023/12/17 07:40:45;;;;;;;12.17;6.27;;;-0.30;99.90;;;;;;5007148;28;20182;-58
2023/12/17 07:43:11;;;;;;;14.73;7.17;;;-0.30;99.90;;;;;;5020167;28;20211;-59
2023/12/17 07:45:37;;;;;;;15.23;6.40;;;-0.30;99.90;;;;;;5017546;28;20198;-59
2023/12/17 07:48:03;;;;;;;10.87;6.23;;;-0.20;99.90;;;;;;5026738;28;20183;-59
2023/12/17 07:50:29;;;;;;;15.20;7.07;;;-0.20;99.90;;;;;;5021153;28;20524;-59
2023/12/17 07:52:55;;;;;;;14.10;7.80;;;-0.20;99.90;;;;;;5023994;28;21015;-59
2023/12/17 07:55:20;;;;;;;13.40;6.20;;;-0.20;99.90;;;;;;5017375;28;20277;-59
2023/12/17 07:57:46;;;;;;;14.93;6.37;;;-0.20;99.90;;;;;;5022199;28;20933;-59
2023/12/17 08:00:12;;;;;;;14.83;8.60;;;-0.10;99.90;;;;;;5014027;28;20251;-59
2023/12/17 08:02:40;;;;;;;14.70;6.83;;;-0.20;99.90;;;;;;5013944;28;20624;-59
2023/12/17 08:05:07;;;;;;;18.20;7.30;;;-0.10;99.90;;;;;;5014155;28;20465;-59
2023/12/17 08:07:33;;;;;;;14.90;7.70;;;0.00;99.90;;;;;;5013691;28;20472;-59
2023/12/17 08:09:58;;;;;;;17.00;7.97;;;0.00;99.90;;;;;;5006372;28;20969;-59
2023/12/17 08:12:24;;;;;;;18.60;7.93;;;0.00;99.90;;;;;;5013937;28;20545;-59
2023/12/17 08:14:50;;;;;;;16.27;7.07;;;0.00;99.90;;;;;;5013839;28;20191;-59
2023/12/17 08:17:15;;;;;;;18.73;8.80;;;0.10;99.90;;;;;;5013727;28;20191;-57
2023/12/17 08:19:42;;;;;;;14.07;7.90;;;0.10;99.90;;;;;;5018028;28;20270;-57
2023/12/17 08:22:08;;;;;;;15.80;7.50;;;0.20;99.90;;;;;;5013680;28;20262;-59
2023/12/17 08:24:34;;;;;;;12.20;6.73;;;0.20;99.90;;;;;;5013421;28;20476;-59
2023/12/17 08:26:59;;;;;;;16.30;7.67;;;0.20;99.90;;;;;;5013672;28;20600;-59
2023/12/17 08:29:25;;;;;;;16.57;8.63;;;0.30;99.90;;;;;;5017168;28;20635;-60
2023/12/17 08:31:51;;;;;;;16.20;7.10;;;0.30;99.90;;;;;;5023056;28;20183;-59
2023/12/17 08:34:17;;;;;;;20.50;9.60;;;0.40;99.90;;;;;;5013674;28;20612;-59
2023/12/17 08:36:43;;;;;;;15.53;8.90;;;0.40;99.90;;;;;;5023410;28;20428;-59
2023/12/17 08:39:11;;;;;;;15.73;7.30;;;0.50;99.90;;;;;;5019378;28;20221;-59
2023/12/17 08:41:40;;;;;;;14.90;8.13;;;0.70;99.90;;;;;;5023261;28;20444;-59
2023/12/17 08:44:06;;;;;;;15.97;7.80;;;0.80;99.90;;;;;;5019320;28;20425;-59
2023/12/17 08:46:31;;;;;;;17.80;8.63;;;0.90;99.90;;;;;;5012627;28;20470;-59
2023/12/17 08:48:57;;;;;;;16.87;9.30;;;1.00;99.90;;;;;;5008083;28;20212;-58
2023/12/17 08:51:22;;;;;;;13.07;7.10;;;1.00;99.90;;;;;;5012815;28;20195;-60
2023/12/17 08:53:48;;;;;;;8.57;4.67;;;1.20;99.90;;;;;;5012527;28;20183;-59
2023/12/17 08:56:14;;;;;;;9.67;4.80;;;1.40;99.90;;;;;;5012779;28;20199;-59
2023/12/17 08:58:39;;;;;;;17.43;4.93;;;1.50;99.90;;;;;;5025911;28;20202;-59
2023/12/17 09:01:05;;;;;;;11.27;4.33;;;1.70;99.90;;;;;;5007674;28;20220;-60
2023/12/17 09:03:30;;;;;;;7.87;4.70;;;1.90;99.90;;;;;;5008224;28;20202;-58
2023/12/17 09:05:56;;;;;;;6.17;4.07;;;2.00;99.90;;;;;;5004712;28;20223;-59
2023/12/17 09:08:21;;;;;;;7.47;4.40;;;2.10;99.90;;;;;;5010580;28;20214;-59
2023/12/17 09:10:47;;;;;;;15.37;6.23;;;2.20;99.90;;;;;;5009869;28;20210;-57
2023/12/17 09:13:13;;;;;;;9.83;5.33;;;2.20;99.90;;;;;;5009984;28;20671;-57
2023/12/17 09:15:39;;;;;;;10.23;4.27;;;2.30;99.90;;;;;;5012377;28;20234;-58
2023/12/17 09:18:05;;;;;;;6.23;3.90;;;2.50;99.90;;;;;;5023967;28;20512;-59
2023/12/17 09:20:31;;;;;;;5.83;3.07;;;2.50;99.90;;;;;;5012100;28;20517;-59
2023/12/17 09:22:57;;;;;;;5.07;2.87;;;2.70;99.90;;;;;;5011769;28;20191;-58
2023/12/17 09:25:23;;;;;;;6.50;3.60;;;2.80;99.90;;;;;;5011752;28;20553;-58
2023/12/17 09:27:51;;;;;;;5.13;3.30;;;2.70;99.90;;;;;;5015239;28;20186;-59
2023/12/17 09:30:17;;;;;;;5.83;3.67;;;2.70;99.90;;;;;;5021183;28;20423;-58
2023/12/17 09:32:44;;;;;;;5.83;3.50;;;2.80;99.90;;;;;;5011548;28;20942;-59
2023/12/17 09:35:10;;;;;;;9.20;4.50;;;2.90;99.90;;;;;;5011796;28;20434;-59
2023/12/17 09:37:36;;;;;;;8.10;3.87;;;3.00;99.90;;;;;;5011136;28;20438;-59
2023/12/17 09:40:02;;;;;;;8.00;3.03;;;3.10;99.90;;;;;;5011315;28;20450;-59
2023/12/17 09:42:29;;;;;;;11.50;4.47;;;3.20;99.90;;;;;;5011434;28;20206;-59
2023/12/17 09:44:54;;;;;;;6.83;3.43;;;3.40;99.90;;;;;;5011196;28;20501;-59
2023/12/17 09:47:20;;;;;;;9.83;3.17;;;3.60;99.90;;;;;;5011376;28;20454;-59
2023/12/17 09:49:46;;;;;;;8.80;3.83;;;3.70;99.90;;;;;;5011880;28;20553;-59
2023/12/17 09:52:12;;;;;;;6.63;3.57;;;3.70;99.90;;;;;;5010924;28;20640;-59
2023/12/17 09:54:39;;;;;;;11.30;3.67;;;3.70;99.90;;;;;;5011322;28;20187;-59
2023/12/17 09:57:08;;;;;;;10.90;3.40;;;3.70;99.90;;;;;;5011408;28;20525;-59
2023/12/17 09:59:34;;;;;;;5.37;2.90;;;3.80;99.90;;;;;;5010112;28;20440;-59
2023/12/17 10:01:59;;;;;;;5.63;2.33;;;3.80;99.90;;;;;;5011005;28;20474;-59
2023/12/17 10:04:26;;;;;;;8.60;2.60;;;4.00;99.90;;;;;;5021840;28;20194;-59
2023/12/17 10:06:52;;;;;;;3.90;1.93;;;4.10;99.90;;;;;;5018613;28;20245;-59
2023/12/17 10:09:17;;;;;;;6.47;2.80;;;4.30;99.90;;;;;;5010760;28;20421;-59
2023/12/17 10:11:43;;;;;;;4.97;1.70;;;4.40;99.90;;;;;;5011158;28;20430;-59
2023/12/17 10:14:23;;;;;;;2.67;1.60;;;4.50;99.90;;;;;;5011164;28;20210;-59
2023/12/17 10:16:50;;;;;;;3.10;1.73;;;4.80;99.90;;;;;;5011068;28;20189;-59
2023/12/17 10:19:16;;;;;;;3.87;1.60;;;4.80;99.90;;;;;;5011192;28;20426;-59
2023/12/17 10:21:41;;;;;;;6.00;2.17;;;4.90;99.90;;;;;;5011055;28;20772;-59
2023/12/17 10:24:07;;;;;;;3.87;1.93;;;5.10;99.90;;;;;;5010633;28;20703;-59
2023/12/17 10:26:41;;;;;;;4.10;2.10;;;5.20;99.90;;;;;;5010956;28;20272;-59
2023/12/17 10:29:08;;;;;;;2.13;1.17;;;5.40;99.90;;;;;;5010863;28;20187;-59
2023/12/17 10:31:35;;;;;;;3.40;1.70;;;5.50;99.90;;;;;;5011059;28;20433;-59
2023/12/17 10:34:09;;;;;;;2.17;1.43;;;5.50;99.90;;;;;;5010777;28;20516;-59
2023/12/17 10:36:35;;;;;;;2.97;1.40;;;5.80;99.90;;;;;;5016397;28;20425;-59
2023/12/17 10:39:02;;;;;;;2.00;1.00;;;6.00;99.90;;;;;;5014560;28;20918;-59
2023/12/17 10:41:29;;;;;;;4.00;1.30;;;6.10;99.90;;;;;;5010992;28;20202;-59
2023/12/17 10:43:56;;;;;;;2.40;1.43;;;6.20;99.90;;;;;;5010486;28;20505;-59
2023/12/17 10:46:23;;;;;;;4.60;1.73;;;6.30;99.90;;;;;;5011044;28;20461;-59
2023/12/17 10:48:48;;;;;;;3.90;2.43;;;6.50;99.90;;;;;;5013098;28;20429;-59
2023/12/17 10:51:16;;;;;;;2.90;1.60;;;6.50;99.90;;;;;;5011157;28;20945;-59
2023/12/17 10:53:42;;;;;;;2.33;1.00;;;6.70;99.90;;;;;;5010384;28;20190;-59
2023/12/17 10:56:08;;;;;;;4.07;2.17;;;6.70;99.90;;;;;;5010650;28;20430;-59
2023/12/17 10:58:35;;;;;;;3.37;1.50;;;6.90;99.90;;;;;;5023720;28;20187;-60
2023/12/17 11:01:01;;;;;;;4.93;1.23;;;7.10;99.90;;;;;;5010512;28;20430;-60
2023/12/17 11:03:27;;;;;;;2.80;1.30;;;7.20;99.90;;;;;;5013724;28;20491;-60
2023/12/17 11:05:55;;;;;;;4.83;1.40;;;7.20;99.90;;;;;;5022812;28;20710;-60
2023/12/17 11:08:23;;;;;;;5.00;1.30;;;7.10;99.90;;;;;;5013450;28;20430;-60
2023/12/17 11:10:49;;;;;;;2.70;1.43;;;7.10;99.90;;;;;;5012607;28;20573;-60
2023/12/17 11:13:14;;;;;;;6.30;1.70;;;7.20;99.90;;;;;;5014279;28;20971;-60
2023/12/17 11:15:40;;;;;;;3.80;1.93;;;7.40;99.90;;;;;;5014217;28;20322;-60
2023/12/17 11:18:07;;;;;;;2.10;1.20;;;7.30;99.90;;;;;;5013890;28;20660;-60
2023/12/17 11:20:39;;;;;;;2.47;1.87;;;7.30;99.90;;;;;;5014188;28;20643;-60
2023/12/17 11:23:05;;;;;;;3.70;1.87;;;7.30;99.90;;;;;;5027170;28;20430;-58
2023/12/17 11:25:31;;;;;;;2.23;1.27;;;7.40;99.90;;;;;;5013854;28;20468;-58
2023/12/17 11:27:57;;;;;;;3.23;1.63;;;7.40;98.80;;;;;;5013651;28;20190;-58
2023/12/17 11:30:32;;;;;;;2.97;1.30;;;7.50;98.40;;;;;;5013768;28;20410;-58
2023/12/17 11:33:00;;;;;;;3.10;1.20;;;7.70;98.50;;;;;;5013742;28;20179;-60
2023/12/17 11:35:30;;;;;;;2.23;1.27;;;7.50;98.80;;;;;;5014053;28;20426;-60
2023/12/17 11:37:56;;;;;;;5.23;1.60;;;7.60;98.40;;;;;;5024759;28;20835;-60
2023/12/17 11:40:22;;;;;;;2.60;1.57;;;7.60;97.60;;;;;;5013719;28;20496;-60
2023/12/17 11:43:03;;;;;;;7.90;1.57;;;7.50;97.20;;;;;;5013699;28;20501;-60
2023/12/17 11:45:34;;;;;;;3.60;1.70;;;7.60;98.30;;;;;;5026702;28;20670;-60
2023/12/17 11:48:10;;;;;;;2.57;1.40;;;7.70;98.20;;;;;;5013606;28;20426;-60
2023/12/17 11:50:44;;;;;;;4.87;1.50;;;7.60;98.80;;;;;;5016166;28;20429;-60
2023/12/17 11:53:11;;;;;;;4.77;1.67;;;7.60;98.00;;;;;;5013215;28;20414;-60
2023/12/17 11:55:41;;;;;;;4.63;2.00;;;7.60;97.80;;;;;;5013318;28;20429;-60
2023/12/17 11:58:07;;;;;;;1.97;1.20;;;7.50;98.30;;;;;;5025565;28;20433;-60
2023/12/17 12:00:32;;;;;;;2.90;1.20;;;7.60;97.90;;;;;;5014049;28;20431;-60
2023/12/17 12:02:58;;;;;;;4.73;1.63;;;7.60;98.00;;;;;;5013247;28;20235;-60
2023/12/17 12:05:23;;;;;;;4.63;2.20;;;7.50;98.60;;;;;;5013568;28;20200;-59
2023/12/17 12:07:57;;;;;;;1.87;1.00;;;7.50;98.40;;;;;;5015533;28;20210;-59
2023/12/17 12:10:22;;;;;;;2.10;1.30;;;7.80;97.20;;;;;;5013373;28;20237;-59
2023/12/17 12:13:04;;;;;;;2.43;1.30;;;7.60;98.00;;;;;;5013432;28;20907;-60
2023/12/17 12:15:30;;;;;;;2.07;0.80;;;7.60;97.20;;;;;;5001418;28;20191;-59
2023/12/17 12:17:55;;;;;;;6.23;1.23;;;7.60;97.10;;;;;;5012999;28;20417;-60
2023/12/17 12:20:37;;;;;;;3.20;1.17;;;7.60;97.00;;;;;;5013333;28;20274;-59
2023/12/17 12:23:10;;;;;;;2.10;1.33;;;7.40;97.10;;;;;;5011703;28;20647;-59
2023/12/17 12:25:37;;;;;;;3.00;1.03;;;7.40;97.40;;;;;;5012820;28;20472;-59
2023/12/17 12:28:02;;;;;;;2.43;1.20;;;7.60;97.00;;;;;;5012953;28;20425;-59
2023/12/17 12:30:29;;;;;;;2.67;1.37;;;7.60;97.20;;;;;;5012834;28;20430;-59
2023/12/17 12:32:55;;;;;;;2.23;0.90;;;7.60;97.10;;;;;;5012690;28;20175;-58
2023/12/17 12:35:23;;;;;;;1.83;0.93;;;7.60;98.50;;;;;;5013015;28;20457;-58
2023/12/17 12:37:48;;;;;;;3.97;1.17;;;7.70;98.80;;;;;;5023013;28;20504;-59
2023/12/17 12:40:14;;;;;;;2.27;1.00;;;7.60;98.30;;;;;;5012681;28;20821;-59
2023/12/17 12:42:39;;;;;;;2.50;0.80;;;7.60;98.30;;;;;;5012808;28;20195;-60
2023/12/17 12:45:06;;;;;;;2.97;1.03;;;7.70;98.10;;;;;;5012485;28;20222;-59